Time;durP1;ratioP1;P1;durP2;ratioP2;P2;SDS_P1;SDS_P2;PMS_P1;PMS_P2;Temp;Humidity;BMP_temperature;BMP_pressure;BME280_temperature;BME280_humidity;BME280_pressure;Samples;Min_cycle;Max_cycle;Signal;HPM_P1;HPM_P2
2022/11/18 00:01:44;;;;;;;12.23;8.63;;;;;;;0.40;83.07;99022.80;2197504;80;21519;-80
2022/11/18 00:04:45;;;;;;;13.95;10.10;;;;;;;0.40;83.07;99031.92;2191026;80;21013;-82
2022/11/18 00:07:46;;;;;;;13.13;9.35;;;;;;;0.40;83.06;99029.31;2161112;81;21012;-81
2022/11/18 00:10:47;;;;;;;11.95;8.70;;;;;;;0.39;82.97;99029.43;2166295;80;21524;-81
2022/11/18 00:17:08;;;;;;;13.75;9.05;;;;;;;0.36;83.05;99045.34;2171596;80;22261;-81
2022/11/18 00:20:09;;;;;;;14.50;9.25;;;;;;;0.31;82.88;99039.23;2167650;80;21028;-81
2022/11/18 00:23:11;;;;;;;13.70;9.43;;;;;;;0.26;82.97;99032.73;2203441;79;21472;-82
2022/11/18 00:26:14;;;;;;;12.65;10.20;;;;;;;0.22;82.91;99020.41;2210894;79;21096;-81
2022/11/18 00:29:15;;;;;;;14.05;9.75;;;;;;;0.16;82.92;99007.39;2207169;79;21096;-81
2022/11/18 00:32:16;;;;;;;12.80;8.68;;;;;;;0.13;82.86;99010.74;2205272;79;21508;-81
2022/11/18 00:35:17;;;;;;;12.88;9.73;;;;;;;0.08;82.80;98995.45;2208763;79;21104;-82
2022/11/18 00:38:18;;;;;;;15.30;10.43;;;;;;;0.06;82.92;98990.02;2195327;79;20983;-82
2022/11/18 00:41:23;;;;;;;15.50;10.60;;;;;;;0.05;83.02;98989.20;2190124;79;21101;-81
2022/11/18 00:44:24;;;;;;;13.75;10.65;;;;;;;0.04;82.99;98995.37;2200750;79;21071;-81
2022/11/18 00:47:25;;;;;;;15.48;10.95;;;;;;;0.03;83.06;98992.88;2195031;79;20952;-80
2022/11/18 00:50:26;;;;;;;12.68;10.05;;;;;;;0.00;83.08;98995.30;2191293;79;20970;-82
2022/11/18 00:53:27;;;;;;;13.78;9.90;;;;;;;-0.02;83.00;98994.10;2198979;79;21414;-80
2022/11/18 00:56:28;;;;;;;15.15;10.25;;;;;;;-0.05;83.09;99003.97;2188931;79;20988;-86
2022/11/18 00:59:29;;;;;;;14.47;9.75;;;;;;;-0.10;83.12;98987.39;2168050;80;21052;-81
2022/11/18 01:02:30;;;;;;;12.88;7.85;;;;;;;-0.12;83.10;98993.20;2180607;80;20994;-85
2022/11/18 01:05:30;;;;;;;;;;;;;;;-0.14;83.11;99003.40;2165823;82;21049;-81
2022/11/18 01:08:31;;;;;;;13.65;10.53;;;;;;;-0.17;83.23;99000.59;2195322;79;20134;-83
2022/11/18 01:14:52;;;;;;;13.95;10.90;;;;;;;-0.19;83.14;98984.24;2187763;79;21041;-82
2022/11/18 01:17:53;;;;;;;15.53;10.50;;;;;;;-0.20;83.23;98987.78;2184108;79;21491;-81
2022/11/18 01:21:01;;;;;;;14.43;11.22;;;;;;;-0.18;83.38;98997.62;2189870;79;21027;-81
2022/11/18 01:24:02;;;;;;;16.75;10.80;;;;;;;-0.18;83.34;98983.76;2179999;81;21551;-85
2022/11/18 01:27:03;;;;;;;13.75;10.15;;;;;;;-0.17;83.45;98986.25;2180178;81;20981;-81
2022/11/18 01:30:05;;;;;;;14.00;9.90;;;;;;;-0.17;83.43;98982.80;2168404;81;20963;-82
2022/11/18 01:33:07;;;;;;;13.88;9.68;;;;;;;-0.16;83.51;98986.59;2180282;81;21092;-81
2022/11/18 01:36:17;;;;;;;15.32;9.95;;;;;;;-0.17;83.45;98990.16;2205358;80;21068;-82
2022/11/18 01:39:18;;;;;;;15.03;10.85;;;;;;;-0.19;83.35;98985.55;2191233;80;21040;-83
2022/11/18 01:42:19;;;;;;;15.32;10.65;;;;;;;-0.21;83.32;98987.44;2192991;79;20985;-81
2022/11/18 01:45:35;;;;;;;;;;;;;;;-0.24;83.20;98991.61;2219337;79;21001;-82
2022/11/18 01:48:38;;;;;;;18.02;10.85;;;;;;;-0.26;83.30;98981.77;2222519;79;20568;-82
2022/11/18 01:51:50;;;;;;;14.43;10.70;;;;;;;-0.29;83.29;98977.63;2217710;79;21038;-83
2022/11/18 01:54:55;;;;;;;13.48;10.85;;;;;;;-0.30;83.43;98977.77;2229224;79;21504;-82
2022/11/18 01:58:11;;;;;;;15.83;11.33;;;;;;;-0.32;83.38;98969.24;2187837;80;21087;-82
2022/11/18 02:01:12;;;;;;;15.83;11.22;;;;;;;-0.32;83.49;98970.55;2173396;81;21608;-82
2022/11/18 02:04:14;;;;;;;14.98;9.98;;;;;;;-0.34;83.47;98977.20;2174028;81;21000;-82
2022/11/18 02:07:16;;;;;;;14.98;10.58;;;;;;;-0.35;83.42;98957.77;2172062;81;21493;-84
2022/11/18 02:10:23;;;;;;;15.03;11.18;;;;;;;-0.36;83.38;98960.03;2172975;81;21023;-82
2022/11/18 02:13:25;;;;;;;17.10;11.33;;;;;;;-0.36;83.58;98950.91;2178445;81;21005;-82
2022/11/18 02:16:51;;;;;;;14.98;10.38;;;;;;;-0.36;83.63;98964.77;2178258;81;21518;-81
2022/11/18 02:20:10;;;;;;;14.30;10.43;;;;;;;-0.36;83.59;98961.34;2170750;81;21039;-81
2022/11/18 02:23:38;;;;;;;16.05;11.20;;;;;;;-0.36;83.55;98963.46;2174140;81;21540;-81
2022/11/18 02:27:10;;;;;;;15.90;11.70;;;;;;;-0.36;83.63;98965.25;2175302;81;21080;-81
2022/11/18 02:30:15;;;;;;;17.07;11.38;;;;;;;-0.32;83.64;98963.55;2175755;81;21518;-81
2022/11/18 02:33:38;;;;;;;14.53;10.88;;;;;;;-0.33;83.61;98962.39;2170686;81;21020;-82
2022/11/18 02:36:47;;;;;;;16.73;11.10;;;;;;;-0.34;83.74;98961.56;2128527;81;21149;-80
2022/11/18 02:40:09;;;;;;;16.48;11.08;;;;;;;-0.33;83.75;98961.08;2148109;80;21101;-81
2022/11/18 02:43:24;;;;;;;15.65;11.65;;;;;;;-0.33;83.76;98963.69;2158352;80;21629;-82
2022/11/18 02:46:31;;;;;;;15.10;10.88;;;;;;;-0.33;83.81;98974.12;2185705;80;21133;-81
2022/11/18 02:49:43;;;;;;;17.15;11.40;;;;;;;-0.31;83.92;98974.80;2160430;81;21055;-81
2022/11/18 02:52:54;;;;;;;20.82;13.00;;;;;;;-0.27;83.96;98978.83;2187966;80;21545;-81
2022/11/18 02:55:57;;;;;;;15.50;11.83;;;;;;;-0.28;83.96;98971.97;2155704;81;21056;-81
2022/11/18 02:58:58;;;;;;;18.40;11.33;;;;;;;-0.26;83.95;98963.52;2151060;81;21058;-80
2022/11/18 03:01:59;;;;;;;15.70;11.48;;;;;;;-0.25;83.91;98952.16;2143916;81;21041;-80
2022/11/18 03:05:00;;;;;;;15.90;11.55;;;;;;;-0.26;83.96;98949.19;2151968;80;21604;-83
2022/11/18 03:08:07;;;;;;;15.95;12.23;;;;;;;-0.28;83.91;98941.51;2152064;80;21567;-81
2022/11/18 03:11:19;;;;;;;16.52;12.40;;;;;;;-0.27;84.04;98940.55;2152092;80;21038;-82
2022/11/18 03:15:01;;;;;;;19.62;13.32;;;;;;;-0.27;84.07;98937.94;2151437;80;21008;-81
2022/11/18 03:18:32;;;;;;;19.62;14.60;;;;;;;-0.26;84.10;98937.45;2155473;80;21022;-81
2022/11/18 03:21:40;;;;;;;19.57;13.70;;;;;;;-0.24;84.19;98944.68;2152146;80;21006;-81
2022/11/18 03:24:50;;;;;;;22.42;14.63;;;;;;;-0.24;84.45;98944.68;2154245;80;21087;-80
2022/11/18 03:28:11;;;;;;;22.20;13.93;;;;;;;-0.27;84.50;98941.02;2150542;80;21076;-81
2022/11/18 03:31:35;;;;;;;;;;;;;;;-0.30;84.72;98936.89;2132886;80;21549;-84
2022/11/18 03:34:50;;;;;;;23.95;14.98;;;;;;;-0.34;84.74;98932.04;2151064;80;20111;-81
2022/11/18 03:37:59;;;;;;;27.00;16.30;;;;;;;-0.40;84.95;98929.95;2201969;79;20986;-81
2022/11/18 03:41:05;;;;;;;20.50;12.70;;;;;;;-0.44;84.97;98931.98;2194804;79;21059;-81
2022/11/18 03:44:13;;;;;;;24.43;15.50;;;;;;;-0.44;85.26;98933.77;2207303;79;21561;-83
2022/11/18 03:47:20;;;;;;;24.20;16.87;;;;;;;-0.48;85.24;98925.35;2166502;79;21034;-80
2022/11/18 03:50:25;;;;;;;24.05;16.02;;;;;;;-0.49;85.24;98926.31;2209386;79;21015;-81
2022/11/18 03:53:30;;;;;;;27.42;17.35;;;;;;;-0.53;85.49;98919.72;2201853;79;21540;-82
2022/11/18 03:56:36;;;;;;;27.10;16.60;;;;;;;-0.56;85.29;98919.48;2202558;79;21522;-82
2022/11/18 03:59:48;;;;;;;24.40;15.65;;;;;;;-0.57;85.44;98919.59;2176639;79;21040;-81
2022/11/18 04:02:50;;;;;;;25.97;17.15;;;;;;;-0.60;85.31;98915.46;2202219;79;21078;-82
2022/11/18 04:05:57;;;;;;;27.22;17.40;;;;;;;-0.60;85.37;98924.58;2197981;79;20995;-82
2022/11/18 04:09:02;;;;;;;26.70;16.07;;;;;;;-0.60;85.53;98925.06;2205483;79;21512;-82
2022/11/18 04:12:08;;;;;;;26.50;15.43;;;;;;;-0.64;85.41;98928.40;2196569;79;21524;-81
2022/11/18 04:15:10;;;;;;;24.30;14.55;;;;;;;-0.67;85.42;98914.33;2202225;79;21109;-84
2022/11/18 04:18:11;;;;;;;27.75;17.12;;;;;;;-0.70;85.46;98917.18;2204930;79;21031;-82
2022/11/18 04:21:12;;;;;;;29.82;17.77;;;;;;;-0.77;85.27;98916.83;2200950;79;21048;-81
2022/11/18 04:24:13;;;;;;;29.20;18.45;;;;;;;-0.80;85.29;98924.08;2198448;79;21029;-81
2022/11/18 04:27:14;;;;;;;27.13;17.98;;;;;;;-0.84;85.17;98923.98;2165432;81;21085;-81
2022/11/18 04:30:16;;;;;;;26.05;15.38;;;;;;;-0.87;85.39;98917.69;2163852;81;20951;-82
2022/11/18 04:33:17;;;;;;;29.80;18.82;;;;;;;-0.91;85.35;98909.30;2167280;81;20987;-82
2022/11/18 04:36:18;;;;;;;27.30;17.70;;;;;;;-0.94;85.34;98912.98;2187632;79;21041;-82
2022/11/18 04:39:20;;;;;;;29.00;18.30;;;;;;;-0.97;85.17;98918.44;2227497;79;21005;-82
2022/11/18 04:42:21;;;;;;;29.57;17.52;;;;;;;-0.99;85.01;98913.81;2224112;79;21463;-83
2022/11/18 04:45:22;;;;;;;27.85;17.75;;;;;;;-1.02;84.93;98923.18;2175977;81;21081;-82
2022/11/18 04:48:23;;;;;;;28.90;16.60;;;;;;;-1.03;84.97;98925.44;2149774;81;21014;-83
2022/11/18 04:51:24;;;;;;;27.90;16.12;;;;;;;-1.05;84.74;98932.53;2191371;80;21034;-81
2022/11/18 04:54:26;;;;;;;26.20;15.83;;;;;;;-1.09;84.27;98928.53;2169679;80;21006;-82
2022/11/18 04:57:27;;;;;;;30.88;18.07;;;;;;;-1.14;84.31;98930.67;2188174;80;21064;-81
2022/11/18 05:00:28;;;;;;;27.73;16.37;;;;;;;-1.18;84.44;98932.70;2191909;80;21065;-82
2022/11/18 05:03:29;;;;;;;26.75;15.90;;;;;;;-1.19;84.27;98934.11;2193667;80;21570;-83
2022/11/18 05:06:32;;;;;;;26.23;17.23;;;;;;;-1.21;84.31;98941.20;2163259;82;21033;-93
2022/11/18 05:09:33;;;;;;;26.27;15.32;;;;;;;-1.24;84.43;98947.95;2176598;81;20955;-82
2022/11/18 05:12:49;;;;;;;27.35;16.40;;;;;;;-1.23;84.42;98949.14;2176865;81;20958;-82
2022/11/18 05:15:50;;;;;;;28.00;17.25;;;;;;;-1.23;84.15;98945.72;2174467;81;21083;-83
2022/11/18 05:18:51;;;;;;;29.57;18.00;;;;;;;-1.24;84.25;98952.71;2175893;81;21030;-82
2022/11/18 05:21:53;;;;;;;28.67;18.00;;;;;;;-1.24;84.14;98954.46;2170507;81;21056;-79
2022/11/18 05:24:54;;;;;;;26.93;17.00;;;;;;;-1.24;84.29;98957.06;2191784;80;21018;-81
2022/11/18 05:27:55;;;;;;;28.40;17.32;;;;;;;-1.25;84.06;98964.53;2132137;82;21088;-82
2022/11/18 05:30:56;;;;;;;26.95;17.30;;;;;;;-1.28;83.69;98968.20;2190500;79;21593;-82
2022/11/18 05:33:57;;;;;;;25.57;15.65;;;;;;;-1.30;83.68;98958.37;2187253;79;21475;-82
2022/11/18 05:36:59;;;;;;;24.27;16.12;;;;;;;-1.32;83.69;98967.23;2198557;79;21061;-81
2022/11/18 05:40:00;;;;;;;25.55;16.35;;;;;;;-1.38;83.20;98975.91;2215705;79;21551;-82
2022/11/18 05:43:10;;;;;;;26.35;17.00;;;;;;;-1.41;83.42;98974.84;2167135;81;21545;-81
2022/11/18 05:46:11;;;;;;;31.50;18.07;;;;;;;-1.42;83.59;98980.97;2227218;79;21492;-82
2022/11/18 05:49:12;;;;;;;28.75;16.25;;;;;;;-1.41;83.68;98981.34;2184758;80;21562;-77
2022/11/18 05:52:14;;;;;;;29.35;17.45;;;;;;;-1.40;83.54;98989.98;2188910;80;21016;-78
2022/11/18 05:55:19;;;;;;;26.60;17.27;;;;;;;-1.42;83.64;98991.38;2186758;80;21612;-78
2022/11/18 05:58:22;;;;;;;29.77;18.48;;;;;;;-1.44;83.49;98991.96;2189107;80;21027;-78
2022/11/18 06:01:37;;;;;;;24.47;15.90;;;;;;;-1.48;83.15;98996.23;2184673;80;21023;-81
2022/11/18 06:04:46;;;;;;;27.13;16.90;;;;;;;-1.51;83.11;98997.30;2179925;80;21015;-87
2022/11/18 06:07:48;;;;;;;30.15;18.50;;;;;;;-1.53;83.19;98999.66;2186661;80;21025;-78
2022/11/18 06:10:51;;;;;;;24.63;16.30;;;;;;;-1.56;83.36;98995.52;2188615;80;21085;-78
2022/11/18 06:14:02;;;;;;;32.13;19.05;;;;;;;-1.58;83.26;99003.91;2186355;80;21036;-77
2022/11/18 06:17:09;;;;;;;26.97;17.40;;;;;;;-1.59;83.21;99015.27;2183833;80;21626;-77
2022/11/18 06:20:10;;;;;;;28.83;18.52;;;;;;;-1.63;83.08;99021.18;2180820;80;21044;-78
2022/11/18 06:23:13;;;;;;;30.92;19.37;;;;;;;-1.64;83.17;99028.61;2186057;80;20979;-79
2022/11/18 06:26:17;;;;;;;28.52;18.05;;;;;;;-1.65;83.20;99030.04;2145182;80;21033;-76
2022/11/18 06:29:22;;;;;;;31.27;21.00;;;;;;;-1.66;82.97;99034.87;2188847;80;21531;-78
2022/11/18 06:32:23;;;;;;;32.08;20.25;;;;;;;-1.67;83.17;99036.64;2187156;80;21561;-77
2022/11/18 06:35:24;;;;;;;30.75;20.30;;;;;;;-1.66;83.14;99054.38;2183744;80;20975;-76
2022/11/18 06:38:25;;;;;;;;;;;;;;;-1.66;83.02;99043.53;2147785;80;21082;-77
2022/11/18 06:41:26;;;;;;;32.95;21.00;;;;;;;-1.68;82.97;99049.78;2153697;82;20155;-78
2022/11/18 06:44:27;;;;;;;32.33;20.37;;;;;;;-1.71;83.03;99050.84;2152425;82;21528;-77
2022/11/18 06:47:28;;;;;;;35.55;23.05;;;;;;;-1.70;83.18;99067.27;2151216;82;21073;-76
2022/11/18 06:50:30;;;;;;;34.08;21.70;;;;;;;-1.70;83.04;99073.30;2151881;82;20936;-77
2022/11/18 06:53:33;;;;;;;32.95;21.07;;;;;;;-1.68;83.10;99070.59;2153273;82;21017;-77
2022/11/18 06:56:35;;;;;;;33.48;21.05;;;;;;;-1.69;82.77;99067.17;2177617;80;21061;-78
2022/11/18 06:59:36;;;;;;;32.88;19.25;;;;;;;-1.71;82.88;99073.42;2158467;81;21036;-77
2022/11/18 07:02:39;;;;;;;33.18;20.75;;;;;;;-1.71;82.87;99071.64;2123197;83;21472;-79
2022/11/18 07:05:40;;;;;;;30.62;19.95;;;;;;;-1.72;82.53;99073.05;2149769;81;21575;-83
2022/11/18 07:08:42;;;;;;;29.52;19.17;;;;;;;-1.73;82.44;99080.50;2128818;83;21120;-77
2022/11/18 07:11:43;;;;;;;29.95;18.27;;;;;;;-1.76;82.34;99080.73;2137521;83;21054;-77
2022/11/18 07:14:44;;;;;;;33.23;19.65;;;;;;;-1.76;82.30;99083.33;2130173;83;21472;-77
2022/11/18 07:17:45;;;;;;;29.82;18.35;;;;;;;-1.78;82.27;99082.61;2150600;81;21528;-77
2022/11/18 07:20:46;;;;;;;31.82;20.70;;;;;;;-1.80;82.20;99093.14;2153742;81;21046;-77
2022/11/18 07:23:47;;;;;;;;;;;;;;;-1.82;82.12;99097.62;2129186;83;21128;-84
2022/11/18 07:26:48;;;;;;;30.82;17.92;;;;;;;-1.86;81.88;99095.73;2125840;83;20110;-77
2022/11/18 07:29:49;;;;;;;31.90;19.20;;;;;;;-1.89;81.54;99097.22;2156479;81;21067;-77
2022/11/18 07:32:50;;;;;;;;;;;;;;;-1.96;80.85;99103.83;2178146;80;21498;-78
2022/11/18 07:35:51;;;;;;;31.57;20.02;;;;;;;-2.02;80.75;99112.08;2177207;80;20218;-81
2022/11/18 07:38:53;;;;;;;33.50;19.80;;;;;;;-2.05;81.20;99104.03;2210288;79;20970;-77
2022/11/18 07:41:54;;;;;;;33.33;20.27;;;;;;;-2.05;80.99;99095.41;2223933;79;21043;-77
2022/11/18 07:44:58;;;;;;;34.35;20.02;;;;;;;-2.03;81.02;99090.91;2215302;79;21070;-77
2022/11/18 07:47:59;;;;;;;31.02;19.65;;;;;;;-2.07;80.18;99087.70;2223670;79;21132;-77
2022/11/18 07:51:00;;;;;;;31.62;20.40;;;;;;;-2.08;80.27;99089.14;2222606;79;21041;-77
2022/11/18 07:54:15;;;;;;;37.00;21.85;;;;;;;-2.08;80.50;99089.14;2219918;79;20962;-77
2022/11/18 07:57:16;;;;;;;33.85;20.90;;;;;;;-2.04;80.33;99093.98;2212254;79;20971;-85
2022/11/18 08:00:18;;;;;;;38.90;24.30;;;;;;;-2.02;80.28;99082.66;2224162;79;21448;-77
2022/11/18 08:03:19;;;;;;;34.13;20.60;;;;;;;-2.00;79.87;99076.38;2216709;79;21551;-78
2022/11/18 08:06:21;;;;;;;35.40;22.00;;;;;;;-1.99;79.58;99077.23;2223198;79;21088;-78
2022/11/18 08:09:21;;;;;;;38.60;23.92;;;;;;;-1.98;78.86;99093.18;2220932;79;20955;-78
2022/11/18 08:12:22;;;;;;;39.40;24.25;;;;;;;-2.01;79.25;99081.23;2169485;81;21054;-77
2022/11/18 08:15:24;;;;;;;38.83;25.88;;;;;;;-1.98;79.56;99082.30;2178107;81;21103;-83
2022/11/18 08:18:29;;;;;;;40.33;25.70;;;;;;;-2.02;79.51;99078.28;2180347;81;20960;-77
2022/11/18 08:21:30;;;;;;;36.03;23.55;;;;;;;-1.93;78.95;99088.48;2193094;80;21028;-77
2022/11/18 08:24:31;;;;;;;40.33;25.65;;;;;;;-1.93;78.34;99086.70;2191983;80;21611;-77
2022/11/18 08:27:34;;;;;;;36.90;23.10;;;;;;;-1.93;78.63;99090.60;2192288;80;21093;-77
2022/11/18 08:30:35;;;;;;;37.20;25.82;;;;;;;-1.93;77.82;99098.41;2194242;80;21606;-77
2022/11/18 08:33:37;;;;;;;38.58;24.43;;;;;;;-1.90;78.22;99090.85;2185368;80;20989;-77
2022/11/18 08:36:38;;;;;;;38.83;25.72;;;;;;;-1.85;77.57;99084.84;2183020;80;21446;-83
2022/11/18 08:39:39;;;;;;;34.88;22.73;;;;;;;-1.81;78.00;99096.66;2193443;80;21032;-77
2022/11/18 08:42:40;;;;;;;39.25;24.25;;;;;;;-1.76;76.83;99091.96;2179793;80;20950;-78
2022/11/18 08:45:41;;;;;;;35.92;21.90;;;;;;;-1.78;77.22;99081.31;2192592;80;21024;-77
2022/11/18 08:48:42;;;;;;;40.28;25.30;;;;;;;-1.83;76.51;99086.84;2193375;80;21041;-78
2022/11/18 08:51:43;;;;;;;34.55;21.35;;;;;;;-1.86;77.06;99087.92;2181117;80;21563;-82
2022/11/18 08:54:45;;;;;;;30.12;20.08;;;;;;;-1.88;76.31;99088.50;2201968;80;21022;-78
2022/11/18 08:57:46;;;;;;;24.67;17.70;;;;;;;-1.89;75.49;99099.83;2186511;81;21907;-79
2022/11/18 09:00:47;;;;;;;27.55;19.62;;;;;;;-1.94;75.04;99094.16;2187952;81;21463;-78
2022/11/18 09:03:49;;;;;;;29.70;20.62;;;;;;;-1.98;75.20;99093.18;2191220;80;21059;-77
2022/11/18 09:06:50;;;;;;;28.05;19.60;;;;;;;-1.99;75.48;99104.05;2198506;80;21060;-78
2022/11/18 09:09:51;;;;;;;24.82;18.85;;;;;;;-1.98;75.83;99100.50;2193279;80;21928;-78
2022/11/18 09:12:52;;;;;;;29.50;19.70;;;;;;;-1.98;75.27;99108.78;2193867;80;20953;-78
2022/11/18 09:15:53;;;;;;;32.55;22.25;;;;;;;-1.98;75.44;99117.41;2182317;80;21085;-77
2022/11/18 09:18:56;;;;;;;30.32;21.50;;;;;;;-1.99;75.89;99114.45;2156449;82;20968;-78
2022/11/18 09:21:57;;;;;;;31.52;19.20;;;;;;;-1.98;75.05;99130.88;2161592;81;21052;-77
2022/11/18 09:24:58;;;;;;;31.65;22.15;;;;;;;-1.95;75.43;99127.58;2192706;80;20963;-79
2022/11/18 09:27:59;;;;;;;25.92;17.62;;;;;;;-1.93;75.65;99133.50;2201231;80;21543;-79
2022/11/18 09:31:08;;;;;;;28.52;18.17;;;;;;;-1.88;75.53;99127.50;2192786;80;21013;-77
2022/11/18 09:34:09;;;;;;;26.55;19.00;;;;;;;-1.87;75.14;99136.95;2199450;80;21036;-78
2022/11/18 09:37:10;;;;;;;25.68;17.50;;;;;;;-1.87;74.73;99126.55;2205697;79;21570;-77
2022/11/18 09:40:17;;;;;;;25.77;18.65;;;;;;;-1.88;74.32;99135.30;2226621;79;21043;-80
2022/11/18 09:43:40;;;;;;;27.22;18.80;;;;;;;-1.91;74.39;99117.33;2227084;79;21002;-78
2022/11/18 09:47:19;;;;;;;26.77;17.15;;;;;;;-1.92;73.92;99140.83;2229947;78;20997;-82
2022/11/18 09:50:22;;;;;;;28.73;19.40;;;;;;;-1.92;73.83;99133.85;2220447;79;21029;-77
2022/11/18 09:53:25;;;;;;;26.85;19.75;;;;;;;-1.92;73.97;99140.35;2165613;80;20950;-77
2022/11/18 09:56:26;;;;;;;28.02;19.90;;;;;;;-1.90;74.34;99135.05;2194775;80;21074;-81
2022/11/18 09:59:31;;;;;;;28.77;16.95;;;;;;;-1.85;74.12;99138.98;2186445;80;21096;-77
2022/11/18 10:03:02;;;;;;;31.07;19.87;;;;;;;-1.82;73.61;99144.43;2187539;80;21040;-81
2022/11/18 10:06:18;;;;;;;;;;;;;;;-1.79;74.00;99148.58;2192389;80;21030;-77
2022/11/18 10:09:38;;;;;;;31.35;19.80;;;;;;;-1.78;73.58;99145.03;2183176;80;20120;-77
2022/11/18 10:12:49;;;;;;;34.88;21.87;;;;;;;-1.79;73.58;99145.50;2191761;80;21072;-77
2022/11/18 10:16:15;;;;;;;30.72;20.72;;;;;;;-1.76;73.50;99137.95;2182240;80;21127;-77
2022/11/18 10:19:42;;;;;;;31.70;21.27;;;;;;;-1.68;73.46;99140.34;2181906;81;21013;-77
2022/11/18 10:23:05;;;;;;;29.48;19.45;;;;;;;-1.54;74.37;99141.11;2189597;80;21603;-77
2022/11/18 10:26:06;;;;;;;31.10;21.27;;;;;;;-1.43;73.69;99151.07;2189774;80;21694;-78
2022/11/18 10:29:12;;;;;;;35.70;20.60;;;;;;;-1.47;73.07;99134.02;2184783;80;21077;-78
2022/11/18 10:32:15;;;;;;;33.80;21.25;;;;;;;-1.47;72.23;99137.09;2215791;80;21138;-83
2022/11/18 10:35:30;;;;;;;29.12;18.00;;;;;;;-1.51;72.53;99144.78;2187387;80;21036;-78
2022/11/18 10:38:31;;;;;;;34.92;22.35;;;;;;;-1.53;71.85;99143.58;2184344;80;20997;-77
2022/11/18 10:41:52;;;;;;;32.13;21.33;;;;;;;-1.55;71.87;99142.85;2182887;80;21885;-78
2022/11/18 10:44:53;;;;;;;31.25;17.20;;;;;;;-1.54;72.73;99144.53;2180661;80;21040;-79
2022/11/18 10:48:16;;;;;;;34.60;20.45;;;;;;;-1.53;72.17;99150.56;2182504;80;21005;-78
2022/11/18 10:51:24;;;;;;;36.53;23.22;;;;;;;-1.58;72.08;99149.59;2189044;80;21007;-78
2022/11/18 10:54:25;;;;;;;34.55;22.52;;;;;;;-1.60;72.64;99147.59;2156358;81;21086;-77
2022/11/18 10:57:29;;;;;;;34.85;23.92;;;;;;;-1.59;72.60;99147.47;2180571;81;21134;-82
2022/11/18 11:00:45;;;;;;;41.63;23.73;;;;;;;-1.54;73.50;99153.64;2148638;81;21021;-78
2022/11/18 11:04:13;;;;;;;33.50;21.35;;;;;;;-1.55;72.84;99161.55;2164705;80;20986;-77
2022/11/18 11:07:31;;;;;;;35.20;22.65;;;;;;;-1.54;73.20;99164.52;2159588;80;21078;-77
2022/11/18 11:10:32;;;;;;;36.10;21.50;;;;;;;-1.57;72.83;99172.08;2162180;80;21041;-78
2022/11/18 11:13:37;;;;;;;33.85;19.77;;;;;;;-1.61;73.08;99169.33;2164546;80;21572;-77
2022/11/18 11:16:59;;;;;;;42.88;22.85;;;;;;;-1.66;73.16;99157.98;2169547;80;22331;-79
2022/11/18 11:20:22;;;;;;;40.43;23.65;;;;;;;-1.68;73.33;99168.13;2169017;80;21004;-80
2022/11/18 11:23:25;;;;;;;36.48;20.92;;;;;;;-1.66;73.93;99166.23;2171838;80;21005;-77
2022/11/18 11:26:40;;;;;;;32.73;20.75;;;;;;;-1.67;73.49;99171.91;2170532;80;21568;-77
2022/11/18 11:29:53;;;;;;;42.78;23.30;;;;;;;-1.70;73.51;99173.91;2168762;80;20985;-77
2022/11/18 11:33:23;;;;;;;39.58;24.02;;;;;;;-1.74;73.74;99171.19;2155663;80;21017;-79
2022/11/18 11:36:36;;;;;;;30.37;17.02;;;;;;;-1.77;73.90;99167.48;2159739;80;21082;-82
2022/11/18 11:40:03;;;;;;;37.15;20.97;;;;;;;-1.77;74.26;99181.34;2203202;79;20989;-77
2022/11/18 11:43:27;;;;;;;42.60;24.37;;;;;;;-1.76;74.49;99170.46;2208588;79;21050;-76
2022/11/18 11:47:45;;;;;;;38.23;22.25;;;;;;;-1.74;74.73;99177.69;2207148;79;21081;-77
2022/11/18 11:49:57;;;;;;;40.30;24.65;;;;;;;-1.76;74.72;99168.69;2195375;79;21044;-77
2022/11/18 11:53:16;;;;;;;35.80;23.30;;;;;;;-1.76;75.01;99173.89;2204380;79;21093;-77
2022/11/18 11:56:47;;;;;;;41.15;23.35;;;;;;;-1.75;75.22;99171.63;2189929;79;21065;-78
2022/11/18 12:00:03;;;;;;;40.05;22.85;;;;;;;-1.75;75.28;99168.20;2200861;79;21045;-76
2022/11/18 12:03:48;;;;;;;39.18;22.52;;;;;;;-1.75;75.42;99164.31;2208187;79;20988;-76
2022/11/18 12:06:52;;;;;;;37.40;19.92;;;;;;;-1.77;75.67;99163.13;2200601;79;21063;-77
2022/11/18 12:10:20;;;;;;;36.88;20.43;;;;;;;-1.81;75.72;99170.78;2203842;79;21024;-77
2022/11/18 12:13:44;;;;;;;36.05;18.75;;;;;;;-1.85;75.91;99167.59;2200976;79;21040;-77
2022/11/18 12:17:25;;;;;;;31.77;19.67;;;;;;;-1.92;76.14;99175.45;2199942;79;21050;-78
2022/11/18 12:20:42;;;;;;;;;;;;;;;-2.00;76.00;99167.84;2200200;79;21047;-77
2022/11/18 12:23:49;;;;;;;34.38;19.15;;;;;;;-2.07;76.64;99164.87;2205281;79;20170;-77
2022/11/18 12:26:51;;;;;;;29.40;16.93;;;;;;;-2.11;76.48;99179.86;2197553;79;21340;-78
2022/11/18 12:29:58;;;;;;;28.95;16.70;;;;;;;-2.13;76.61;99176.53;2197585;79;21553;-77
2022/11/18 12:32:59;;;;;;;32.58;18.52;;;;;;;-2.14;76.96;99180.53;2205442;79;21026;-81
2022/11/18 12:36:00;;;;;;;28.90;15.70;;;;;;;-2.15;76.96;99187.98;2208068;79;21020;-76
2022/11/18 12:39:26;;;;;;;33.02;17.90;;;;;;;-2.18;76.68;99186.42;2209060;79;21037;-76
2022/11/18 12:46:03;;;;;;;22.67;14.18;;;;;;;-2.24;76.34;99183.44;2220991;79;21061;-79
2022/11/18 12:49:29;;;;;;;25.08;15.72;;;;;;;-2.30;76.40;99182.92;2220181;79;20978;-78
2022/11/18 12:52:35;;;;;;;23.77;14.07;;;;;;;-2.33;76.21;99190.11;2221726;79;20986;-77
2022/11/18 12:55:37;;;;;;;21.82;12.80;;;;;;;-2.32;76.40;99198.27;2216572;79;21031;-77
2022/11/18 12:58:46;;;;;;;23.83;13.55;;;;;;;-2.32;76.16;99193.06;2227845;79;21527;-76
2022/11/18 13:01:47;;;;;;;23.02;13.58;;;;;;;-2.33;76.06;99197.91;2221001;79;21080;-76
2022/11/18 13:05:13;;;;;;;22.00;13.70;;;;;;;-2.33;75.88;99203.93;2224783;79;21058;-79
2022/11/18 13:08:17;;;;;;;19.35;13.00;;;;;;;-2.34;76.24;99211.34;2174916;81;21009;-77
2022/11/18 13:18:15;;;;;;;16.67;11.00;;;;;;;-2.34;75.91;99206.15;2171683;81;20999;-78
2022/11/18 13:24:50;;;;;;;16.45;9.05;;;;;;;-2.33;75.74;99214.33;2191777;80;21016;-78
2022/11/18 13:28:02;;;;;;;12.25;8.43;;;;;;;-2.39;75.08;99219.09;2199231;80;20986;-78
2022/11/18 13:31:45;;;;;;;10.40;7.20;;;;;;;-2.43;74.41;99229.36;2156998;80;21076;-79
2022/11/18 13:35:12;;;;;;;10.50;6.75;;;;;;;-2.47;73.85;99242.20;2192384;80;21430;-78
2022/11/18 13:38:23;;;;;;;9.75;6.85;;;;;;;-2.51;73.16;99235.07;2194211;80;21013;-78
2022/11/18 13:41:37;;;;;;;8.83;6.28;;;;;;;-2.54;73.33;99235.28;2194422;80;21072;-78
2022/11/18 13:44:35;;;;;;;9.30;5.75;;;;;;;-2.53;73.40;99236.97;2189178;80;21021;-78
2022/11/18 13:47:44;;;;;;;8.93;5.47;;;;;;;-2.55;73.67;99246.63;2187863;80;21056;-78
2022/11/18 13:50:53;;;;;;;8.58;5.47;;;;;;;-2.54;73.50;99241.30;2192183;80;20982;-78
2022/11/18 13:53:55;;;;;;;8.65;5.65;;;;;;;-2.50;72.68;99245.84;2193054;80;21005;-78
2022/11/18 13:56:56;;;;;;;7.75;5.67;;;;;;;-2.47;73.21;99244.33;2194779;80;21034;-80
2022/11/18 14:00:04;;;;;;;8.33;6.10;;;;;;;-2.42;72.92;99253.95;2200446;80;20977;-77
2022/11/18 14:03:29;;;;;;;14.98;5.80;;;;;;;-2.39;73.07;99264.56;2156461;80;21579;-77
2022/11/18 14:06:39;;;;;;;5.35;4.12;;;;;;;-2.38;73.17;99260.58;2192516;80;21132;-77
2022/11/18 14:09:59;;;;;;;6.65;4.58;;;;;;;-2.35;72.38;99256.47;2188871;80;21079;-78
2022/11/18 14:13:03;;;;;;;10.48;5.62;;;;;;;-2.36;71.89;99257.41;2191765;80;21044;-77
2022/11/18 14:16:21;;;;;;;8.68;4.70;;;;;;;-2.36;71.83;99248.80;2190540;80;20982;-76
2022/11/18 14:19:30;;;;;;;10.40;6.33;;;;;;;-2.36;71.42;99254.81;2168337;81;21019;-76
2022/11/18 14:22:32;;;;;;;11.20;6.12;;;;;;;-2.35;71.97;99252.57;2169748;81;21024;-77
2022/11/18 14:25:35;;;;;;;9.85;5.60;;;;;;;-2.33;72.20;99257.67;2190789;80;20973;-76
2022/11/18 14:28:37;;;;;;;11.05;6.12;;;;;;;-2.31;71.95;99264.88;2195271;80;21089;-79
2022/11/18 14:31:38;;;;;;;9.80;6.10;;;;;;;-2.30;72.49;99272.58;2190922;80;21012;-76
2022/11/18 14:34:42;;;;;;;11.53;6.80;;;;;;;-2.30;72.01;99263.48;2190056;80;21007;-85
2022/11/18 14:37:44;;;;;;;11.22;6.83;;;;;;;-2.30;72.33;99271.75;2192459;80;21066;-76
2022/11/18 14:40:45;;;;;;;10.35;6.80;;;;;;;-2.31;72.28;99267.03;2190994;80;21050;-82
2022/11/18 14:43:46;;;;;;;9.58;6.53;;;;;;;-2.32;72.50;99269.25;2195233;80;21115;-86
2022/11/18 14:46:52;;;;;;;11.70;6.70;;;;;;;-2.30;72.53;99276.95;2191266;80;21062;-86